Hovedside
METAR-TAF:

METAR-TAF

Lufthavner :

Sir Seretse Khama internasjonale lufthavn

Gaborone, Botswana

breddegrad: 24-13S, lengdegrad: 025-55E, høyde over havet: 1005 m

Gjeldene værobservasjon

Denne rapporten ble laget for 1 time og 25 minutter siden, klokken 02:00 UTC
Vind 2 kt fra Sør-sørvest
Temperatur 5°C
Luftfuktighet 70%
Trykk 1027 hPa
Sikt 10 km eller mer
ingen skyer under 1500 m og ingen bygeskyer

METAR: FBSK 140200Z 21002KT CAVOK 05/M00 Q1027 NOSIG

Tid: 05:25 (03:25 UTC)

Varsel

Denne rapporten ble laget for 5 timer og 25 minutter siden, klokken 22:00 UTC
Varsel gyldig fra 14. klokken 00 UTC til 15. klokken 06 UTC
Vind 4 kt fra Sørvest
Sikt 10 km eller mer
ingen skyer under 1500 m og ingen bygeskyer
Blir
fra 14. klokken 03 UTC til 14. klokken 05 UTC
Vind 4 kt fra Øst-sørøst

TAF: FBSK 132200Z 1400/1506 23004KT CAVOK BECMG 1403/1405 12004KT

Værobservasjoner og værvarsel for over 4000 flyplasser (METAR- og TAF-rapporter).

Tilgjengelige stasjoner er representert av de røde og gule prikkene på kartet.

Hold musepekeren over prikken for å se navnet på stasjonen.

Klikk så for å se værobservasjoner og -varsler.

For å forandre kartet kan du klikke på den grønne knappen med svart kryss for å zoome inn, på den grønne knappen med strek for å zoome ut, eller på de grønne pilene for å se tilstøtende kart.


METAR-TAF: